createdAt,value
2022-10-12T00:00:50.089Z,22.02
2022-10-12T00:03:18.106Z,22.00
2022-10-12T00:05:47.679Z,22.00
2022-10-12T00:08:15.529Z,21.99
2022-10-12T00:10:45.737Z,21.98
2022-10-12T00:13:13.621Z,21.97
2022-10-12T00:15:42.541Z,21.96
2022-10-12T00:18:10.413Z,21.95
2022-10-12T00:20:38.545Z,21.94
2022-10-12T00:23:08.097Z,21.89
2022-10-12T00:25:38.385Z,21.79
2022-10-12T00:28:07.358Z,21.91
2022-10-12T00:30:35.722Z,21.94
2022-10-12T00:33:03.580Z,21.93
2022-10-12T00:35:31.455Z,21.92
2022-10-12T00:37:59.391Z,21.93
2022-10-12T00:40:28.645Z,21.93
2022-10-12T00:42:56.662Z,21.93
2022-10-12T00:45:26.447Z,21.92
2022-10-12T00:47:58.189Z,21.92
2022-10-12T00:50:30.825Z,21.91
2022-10-12T00:53:03.299Z,21.93
2022-10-12T00:55:36.900Z,21.93
2022-10-12T00:58:08.233Z,21.92
2022-10-12T01:00:38.721Z,21.91
2022-10-12T01:03:09.113Z,21.91
2022-10-12T01:05:39.253Z,21.90
2022-10-12T01:08:07.380Z,21.89
2022-10-12T01:10:36.597Z,21.90
2022-10-12T01:13:05.040Z,21.88
2022-10-12T01:15:37.261Z,21.91
2022-10-12T01:18:12.121Z,21.88
2022-10-12T01:20:56.622Z,21.83
2022-10-12T01:23:56.812Z,21.87
2022-10-12T01:26:42.447Z,21.87
2022-10-12T01:29:28.421Z,21.85
2022-10-12T01:32:04.316Z,21.86
2022-10-12T01:34:40.200Z,21.84
2022-10-12T01:37:17.232Z,21.81
2022-10-12T01:39:51.269Z,21.84
2022-10-12T01:42:24.580Z,21.83
2022-10-12T01:44:52.556Z,21.82
2022-10-12T01:47:22.126Z,21.82
2022-10-12T01:49:50.004Z,21.82
2022-10-12T01:52:27.903Z,21.84
2022-10-12T01:55:27.937Z,21.80
2022-10-12T01:58:22.884Z,21.80
2022-10-12T02:01:00.746Z,21.80
2022-10-12T02:03:37.689Z,21.79
2022-10-12T02:06:10.160Z,21.78
2022-10-12T02:08:44.901Z,21.78
2022-10-12T02:11:14.780Z,21.71
2022-10-12T02:13:46.476Z,21.77
2022-10-12T02:16:18.245Z,21.76
2022-10-12T02:18:52.430Z,21.77
2022-10-12T02:21:22.321Z,21.77
2022-10-12T02:23:52.656Z,21.67
2022-10-12T02:26:22.219Z,21.77
2022-10-12T02:28:51.109Z,21.76
2022-10-12T02:31:30.063Z,21.72
2022-10-12T02:34:05.661Z,21.77
2022-10-12T02:36:38.858Z,21.76
2022-10-12T02:39:11.797Z,21.76
2022-10-12T02:41:44.731Z,21.76
2022-10-12T02:44:16.197Z,21.74
2022-10-12T02:46:45.668Z,21.74
2022-10-12T02:49:16.336Z,21.58
2022-10-12T02:51:45.612Z,21.74
2022-10-12T02:54:14.288Z,21.72
2022-10-12T02:56:46.242Z,21.71
2022-10-12T02:59:14.767Z,21.72
2022-10-12T03:01:42.899Z,21.71
2022-10-12T03:04:10.965Z,21.72
2022-10-12T03:06:40.232Z,21.69
2022-10-12T03:09:08.080Z,21.67
2022-10-12T03:11:37.658Z,21.67
2022-10-12T03:14:05.763Z,21.67
2022-10-12T03:16:33.642Z,21.66
2022-10-12T03:19:01.505Z,21.66
2022-10-12T03:21:29.394Z,21.64
2022-10-12T03:23:58.608Z,21.64
2022-10-12T03:26:26.523Z,21.63
2022-10-12T03:28:54.565Z,21.62
2022-10-12T03:31:22.531Z,21.60
2022-10-12T03:33:50.394Z,21.60
2022-10-12T03:36:18.840Z,21.45
2022-10-12T03:38:47.148Z,21.60
2022-10-12T03:41:16.448Z,21.61
2022-10-12T03:43:44.407Z,21.60
2022-10-12T03:46:12.322Z,21.60
2022-10-12T03:48:40.236Z,21.61
2022-10-12T03:51:08.233Z,21.59
2022-10-12T03:53:36.192Z,21.61
2022-10-12T03:56:04.432Z,21.61
2022-10-12T03:58:34.415Z,21.61
2022-10-12T04:01:02.307Z,21.59
2022-10-12T04:03:30.224Z,21.58
2022-10-12T04:05:59.366Z,21.59
2022-10-12T04:08:28.521Z,21.59
2022-10-12T04:10:56.406Z,21.57
2022-10-12T04:13:25.585Z,21.56
2022-10-12T04:15:55.528Z,21.57
2022-10-12T04:18:23.416Z,21.57
2022-10-12T04:20:51.486Z,21.56
2022-10-12T04:23:19.364Z,21.56
2022-10-12T04:25:47.888Z,21.56
2022-10-12T04:28:15.793Z,21.53
2022-10-12T04:30:43.806Z,21.53
2022-10-12T04:33:13.226Z,21.53
2022-10-12T04:35:41.339Z,21.51
2022-10-12T04:38:09.227Z,21.50
2022-10-12T04:40:37.116Z,21.51
2022-10-12T04:43:04.994Z,21.50
2022-10-12T04:45:32.860Z,21.50
2022-10-12T04:48:00.726Z,21.48
2022-10-12T04:50:30.360Z,21.50
2022-10-12T04:52:58.569Z,21.48
2022-10-12T04:55:26.853Z,21.41
2022-10-12T04:57:54.749Z,21.45
2022-10-12T05:00:22.793Z,21.47
2022-10-12T05:02:50.797Z,21.45
2022-10-12T05:05:18.797Z,21.44
2022-10-12T05:07:48.041Z,21.45
2022-10-12T05:10:16.033Z,21.42
2022-10-12T05:12:43.965Z,21.40
2022-10-12T05:15:12.508Z,21.40
2022-10-12T05:17:40.590Z,21.24
2022-10-12T05:20:10.487Z,21.40
2022-10-12T05:22:38.550Z,21.30
2022-10-12T05:25:09.457Z,21.35
2022-10-12T05:27:37.687Z,21.34
2022-10-12T05:30:06.697Z,21.33
2022-10-12T05:32:34.564Z,21.32
2022-10-12T05:35:02.495Z,21.31
2022-10-12T05:37:30.389Z,21.28
2022-10-12T05:39:58.261Z,21.27
2022-10-12T05:42:27.500Z,21.27
2022-10-12T05:44:55.405Z,21.25
2022-10-12T05:47:23.340Z,21.25
2022-10-12T05:49:51.237Z,21.25
2022-10-12T05:52:19.124Z,21.24
2022-10-12T05:54:47.033Z,21.22
2022-10-12T05:57:15.493Z,21.21
2022-10-12T05:59:44.812Z,21.19
2022-10-12T06:02:15.515Z,21.19
2022-10-12T06:04:43.776Z,21.18
2022-10-12T06:07:11.678Z,21.17
2022-10-12T06:09:39.905Z,21.16
2022-10-12T06:12:07.975Z,21.16
2022-10-12T06:14:35.940Z,21.16
2022-10-12T06:17:06.779Z,21.17
2022-10-12T06:19:34.654Z,21.15
2022-10-12T06:22:02.806Z,21.16
2022-10-12T06:24:30.680Z,21.16
2022-10-12T06:26:58.996Z,21.16
2022-10-12T06:29:27.129Z,21.16
2022-10-12T06:31:55.495Z,21.17
2022-10-12T06:34:24.781Z,21.19
2022-10-12T06:36:52.939Z,21.16
2022-10-12T06:39:21.792Z,21.19
2022-10-12T06:41:49.692Z,21.19
2022-10-12T06:44:22.443Z,21.18
2022-10-12T06:46:50.688Z,21.20
2022-10-12T06:49:18.965Z,21.19
2022-10-12T06:51:48.263Z,21.19
2022-10-12T06:54:16.261Z,21.18
2022-10-12T06:56:44.826Z,21.18
2022-10-12T06:59:13.851Z,21.19
2022-10-12T07:01:41.885Z,21.12
2022-10-12T07:04:09.941Z,21.19
2022-10-12T07:06:37.842Z,21.18
2022-10-12T07:09:07.101Z,21.04
2022-10-12T07:11:35.062Z,21.21
2022-10-12T07:14:02.973Z,21.22
2022-10-12T07:16:30.905Z,21.19
2022-10-12T07:18:58.783Z,21.24
2022-10-12T07:21:26.734Z,21.23
2022-10-12T07:23:54.719Z,21.24
2022-10-12T07:26:24.139Z,21.26
2022-10-12T07:28:52.058Z,21.21
2022-10-12T07:31:19.985Z,21.24
2022-10-12T07:33:47.894Z,21.26
2022-10-12T07:36:21.135Z,21.29
2022-10-12T07:38:49.824Z,21.29
2022-10-12T07:41:18.522Z,21.30
2022-10-12T07:43:47.797Z,21.32
2022-10-12T07:46:15.698Z,21.31
2022-10-12T07:48:49.780Z,21.33
2022-10-12T07:51:18.724Z,21.35
2022-10-12T07:53:46.723Z,21.34
2022-10-12T07:56:16.126Z,21.33
2022-10-12T07:58:45.022Z,21.33
2022-10-12T08:01:14.430Z,21.40
2022-10-12T08:03:42.625Z,21.42
2022-10-12T08:06:12.402Z,21.43
2022-10-12T08:08:41.168Z,21.46
2022-10-12T08:11:10.028Z,21.39
2022-10-12T08:13:38.766Z,21.49
2022-10-12T08:16:10.723Z,21.53
2022-10-12T08:18:40.617Z,21.54
2022-10-12T08:21:10.053Z,21.57
2022-10-12T08:23:38.689Z,21.61
2022-10-12T08:26:07.765Z,21.56
2022-10-12T08:28:36.999Z,21.63
2022-10-12T08:31:08.346Z,21.59
2022-10-12T08:33:36.465Z,21.52
2022-10-12T08:36:07.868Z,21.57
2022-10-12T08:38:38.605Z,21.71
2022-10-12T08:41:19.355Z,21.60
2022-10-12T08:44:01.813Z,21.74
2022-10-12T08:46:30.864Z,21.75
2022-10-12T08:49:01.749Z,21.76
2022-10-12T08:51:34.299Z,21.78
2022-10-12T08:54:06.686Z,21.81
2022-10-12T08:56:35.908Z,21.72
2022-10-12T08:59:04.469Z,21.84
2022-10-12T09:01:37.435Z,21.84
2022-10-12T09:04:15.241Z,21.87
2022-10-12T09:06:49.478Z,21.88
2022-10-12T09:09:41.601Z,21.90
2022-10-12T09:12:26.856Z,21.89
2022-10-12T09:15:00.470Z,21.91
2022-10-12T09:17:32.180Z,21.94
2022-10-12T09:20:05.303Z,21.95
2022-10-12T09:22:35.465Z,21.96
2022-10-12T09:25:04.254Z,22.00
2022-10-12T09:27:32.959Z,22.02
2022-10-12T09:30:04.800Z,22.04
2022-10-12T09:33:10.622Z,22.04
2022-10-12T09:35:38.977Z,22.03
2022-10-12T09:38:11.386Z,22.07
2022-10-12T09:40:40.201Z,22.09
2022-10-12T09:43:08.867Z,22.10
2022-10-12T09:45:37.149Z,22.11
2022-10-12T09:48:17.157Z,22.17
2022-10-12T09:50:49.653Z,22.19
2022-10-12T09:53:29.743Z,22.20
2022-10-12T09:56:01.530Z,22.21
2022-10-12T09:58:30.727Z,22.22
2022-10-12T10:01:21.540Z,22.25
2022-10-12T10:03:52.683Z,22.25
2022-10-12T10:06:25.802Z,22.19
2022-10-12T10:08:56.594Z,22.32
2022-10-12T10:11:28.297Z,22.34
2022-10-12T10:13:56.492Z,22.38
2022-10-12T10:16:27.073Z,22.42
2022-10-12T10:18:59.924Z,22.44
2022-10-12T10:21:35.060Z,22.47
2022-10-12T10:24:06.534Z,22.49
2022-10-12T10:26:53.397Z,22.49
2022-10-12T10:29:33.946Z,22.52
2022-10-12T10:32:23.821Z,22.55
2022-10-12T10:35:04.119Z,22.59
2022-10-12T10:37:32.912Z,22.61
2022-10-12T10:40:02.860Z,22.67
2022-10-12T10:42:32.847Z,22.60
2022-10-12T10:45:03.549Z,22.73
2022-10-12T10:47:33.581Z,22.77
2022-10-12T10:50:04.092Z,22.79
2022-10-12T10:52:34.949Z,22.81
2022-10-12T10:55:20.906Z,22.85
2022-10-12T10:57:58.005Z,22.88
2022-10-12T11:00:38.579Z,22.88
2022-10-12T11:03:14.184Z,22.87
2022-10-12T11:05:46.519Z,22.92
2022-10-12T11:08:18.445Z,22.95
2022-10-12T11:10:51.545Z,23.00
2022-10-12T11:13:22.912Z,23.02
2022-10-12T11:15:55.616Z,23.04
2022-10-12T11:18:31.265Z,23.05
2022-10-12T11:21:03.590Z,22.90
2022-10-12T11:23:41.573Z,23.10
2022-10-12T11:26:17.883Z,23.11
2022-10-12T11:28:46.065Z,23.12
2022-10-12T11:31:21.465Z,23.15
2022-10-12T11:33:51.333Z,22.98
2022-10-12T11:36:22.745Z,23.15
2022-10-12T11:38:54.210Z,23.15
2022-10-12T11:41:35.365Z,23.04
2022-10-12T11:44:08.550Z,23.17
2022-10-12T11:46:41.098Z,23.18
2022-10-12T11:49:15.338Z,23.20
2022-10-12T11:51:48.293Z,23.21
2022-10-12T11:54:24.892Z,23.20
2022-10-12T11:56:59.580Z,23.22
2022-10-12T11:59:33.569Z,23.20
2022-10-12T12:02:13.905Z,23.21
2022-10-12T12:04:45.376Z,23.04
2022-10-12T12:07:49.560Z,23.20
2022-10-12T12:11:03.170Z,23.20
2022-10-12T12:13:33.236Z,23.20
2022-10-12T12:16:35.181Z,23.22
2022-10-12T12:19:35.986Z,23.24
2022-10-12T12:22:28.686Z,22.89
2022-10-12T12:25:17.907Z,23.26
2022-10-12T12:27:49.350Z,23.26
2022-10-12T12:30:40.652Z,23.27
2022-10-12T12:33:29.759Z,23.27
2022-10-12T12:36:00.853Z,23.27
2022-10-12T12:38:33.019Z,23.29
2022-10-12T12:41:08.132Z,23.28
2022-10-12T12:44:02.300Z,23.29
2022-10-12T12:50:02.242Z,23.24
2022-10-12T12:52:32.941Z,23.25
2022-10-12T12:55:25.648Z,23.28
2022-10-12T12:58:14.609Z,23.27
2022-10-12T13:00:55.060Z,23.26
2022-10-12T13:03:49.092Z,23.27
2022-10-12T13:06:55.947Z,23.27
2022-10-12T13:09:54.604Z,23.24
2022-10-12T13:12:59.912Z,23.24
2022-10-12T13:15:46.403Z,23.23
2022-10-12T13:18:49.135Z,23.23
2022-10-12T13:21:20.460Z,23.23
2022-10-12T13:23:50.310Z,23.21
2022-10-12T13:26:24.926Z,23.13
2022-10-12T13:28:53.889Z,23.28
2022-10-12T13:31:27.185Z,23.27
2022-10-12T13:34:02.191Z,23.34
2022-10-12T13:36:32.154Z,23.34
2022-10-12T13:39:02.021Z,23.22
2022-10-12T13:41:33.474Z,23.40
2022-10-12T13:44:04.867Z,23.41
2022-10-12T13:46:42.422Z,23.45
2022-10-12T13:49:15.308Z,23.46
2022-10-12T13:51:45.012Z,23.44
2022-10-12T13:54:21.753Z,23.46
2022-10-12T13:56:58.389Z,23.44
2022-10-12T13:59:29.591Z,23.45
2022-10-12T14:02:00.648Z,23.46
2022-10-12T14:04:30.100Z,23.46
2022-10-12T14:07:02.428Z,23.46
2022-10-12T14:09:37.279Z,23.45
2022-10-12T14:12:07.048Z,23.46
2022-10-12T14:14:37.442Z,23.48
2022-10-12T14:17:05.845Z,23.45
2022-10-12T14:19:37.107Z,23.47
2022-10-12T14:22:05.288Z,23.45
2022-10-12T14:24:35.440Z,23.46
2022-10-12T14:27:05.549Z,23.45
2022-10-12T14:29:38.018Z,23.46
2022-10-12T14:32:07.771Z,23.44
2022-10-12T14:34:40.392Z,23.44
2022-10-12T14:37:25.080Z,23.44
2022-10-12T14:39:59.587Z,23.41
2022-10-12T14:42:36.410Z,23.37
2022-10-12T14:45:22.417Z,23.39
2022-10-12T14:47:50.398Z,23.35
2022-10-12T14:50:21.703Z,23.35
2022-10-12T14:52:52.796Z,23.32
2022-10-12T14:55:22.585Z,23.31
2022-10-12T14:57:51.426Z,23.30
2022-10-12T15:00:23.325Z,23.15
2022-10-12T15:02:52.495Z,23.27
2022-10-12T15:05:23.437Z,23.25
2022-10-12T15:07:52.225Z,23.23
2022-10-12T15:10:22.608Z,23.21
2022-10-12T15:12:51.301Z,23.21
2022-10-12T15:15:29.842Z,23.21
2022-10-12T15:17:57.947Z,23.17
2022-10-12T15:20:26.045Z,23.19
2022-10-12T15:22:53.971Z,23.19
2022-10-12T15:25:27.003Z,23.21
2022-10-12T15:27:55.006Z,23.18
2022-10-12T15:30:24.237Z,23.19
2022-10-12T15:32:52.300Z,23.17
2022-10-12T15:35:23.324Z,23.17
2022-10-12T15:37:52.180Z,22.99
2022-10-12T15:40:21.725Z,23.14
2022-10-12T15:42:49.810Z,23.12
2022-10-12T15:45:21.248Z,23.11
2022-10-12T15:47:51.664Z,23.11
2022-10-12T15:50:21.564Z,23.07
2022-10-12T15:52:49.633Z,23.07
2022-10-12T15:55:21.132Z,23.06
2022-10-12T15:57:49.945Z,23.00
2022-10-12T16:00:19.449Z,23.03
2022-10-12T16:02:47.362Z,23.01
2022-10-12T16:05:20.516Z,23.03
2022-10-12T16:07:48.948Z,23.00
2022-10-12T16:10:19.208Z,22.98
2022-10-12T16:12:49.651Z,22.97
2022-10-12T16:15:21.418Z,22.94
2022-10-12T16:17:49.732Z,22.94
2022-10-12T16:20:19.725Z,22.93
2022-10-12T16:22:48.853Z,22.92
2022-10-12T16:25:18.285Z,22.87
2022-10-12T16:27:47.022Z,22.87
2022-10-12T16:30:15.799Z,22.88
2022-10-12T16:32:43.712Z,22.86
2022-10-12T16:35:12.735Z,22.84
2022-10-12T16:37:42.150Z,22.81
2022-10-12T16:40:11.965Z,22.81
2022-10-12T16:42:44.758Z,22.80
2022-10-12T16:45:12.966Z,22.77
2022-10-12T16:47:42.769Z,22.77
2022-10-12T16:50:11.228Z,22.74
2022-10-12T16:52:40.160Z,22.74
2022-10-12T16:55:10.925Z,22.73
2022-10-12T16:57:39.576Z,22.69
2022-10-12T17:00:10.589Z,22.68
2022-10-12T17:02:38.820Z,22.67
2022-10-12T17:05:07.854Z,22.65
2022-10-12T17:07:35.865Z,22.63
2022-10-12T17:10:03.889Z,22.58
2022-10-12T17:12:33.309Z,22.60
2022-10-12T17:15:01.216Z,22.56
2022-10-12T17:17:29.176Z,22.55
2022-10-12T17:19:57.065Z,22.51
2022-10-12T17:22:24.971Z,22.49
2022-10-12T17:24:52.974Z,22.46
2022-10-12T17:27:20.836Z,22.43
2022-10-12T17:29:50.257Z,22.40
2022-10-12T17:32:18.643Z,22.40
2022-10-12T17:34:47.397Z,22.34
2022-10-12T17:37:15.694Z,22.35
2022-10-12T17:39:45.719Z,22.32
2022-10-12T17:42:14.043Z,22.30
2022-10-12T17:44:42.195Z,22.28
2022-10-12T17:47:11.509Z,22.27
2022-10-12T17:49:39.388Z,22.22
2022-10-12T17:52:07.617Z,22.23
2022-10-12T17:54:35.500Z,22.22
2022-10-12T17:57:03.392Z,22.19
2022-10-12T17:59:31.381Z,22.16
2022-10-12T18:01:59.260Z,22.14
2022-10-12T18:04:28.628Z,22.13
2022-10-12T18:06:56.533Z,22.10
2022-10-12T18:09:24.502Z,22.09
2022-10-12T18:11:52.399Z,22.06
2022-10-12T18:14:20.307Z,22.04
2022-10-12T18:16:48.183Z,22.02
2022-10-12T18:19:16.130Z,22.01
2022-10-12T18:21:45.628Z,21.99
2022-10-12T18:24:17.444Z,21.90
2022-10-12T18:26:47.424Z,21.95
2022-10-12T18:29:19.014Z,21.93
2022-10-12T18:31:46.970Z,21.91
2022-10-12T18:34:14.886Z,21.90
2022-10-12T18:36:43.153Z,21.88
2022-10-12T18:39:12.748Z,21.87
2022-10-12T18:41:40.724Z,21.84
2022-10-12T18:44:10.853Z,21.71
2022-10-12T18:46:40.989Z,21.80
2022-10-12T18:49:12.944Z,21.79
2022-10-12T18:51:43.837Z,21.78
2022-10-12T18:54:17.110Z,21.77
2022-10-12T18:56:46.124Z,21.76
2022-10-12T18:59:17.777Z,21.74
2022-10-12T19:01:47.692Z,21.72
2022-10-12T19:04:16.983Z,21.70
2022-10-12T19:06:48.374Z,21.72
2022-10-12T19:09:17.952Z,21.70
2022-10-12T19:11:46.201Z,21.64
2022-10-12T19:14:16.649Z,21.67
2022-10-12T19:16:46.642Z,21.67
2022-10-12T19:19:20.832Z,21.62
2022-10-12T19:21:51.746Z,21.66
2022-10-12T19:24:22.651Z,21.67
2022-10-12T19:26:50.865Z,21.63
2022-10-12T19:29:19.272Z,21.61
2022-10-12T19:31:49.472Z,21.63
2022-10-12T19:34:19.623Z,21.60
2022-10-12T19:36:48.830Z,21.58
2022-10-12T19:39:18.785Z,21.59
2022-10-12T19:41:48.588Z,21.60
2022-10-12T19:44:16.650Z,21.59
2022-10-12T19:46:47.320Z,21.59
2022-10-12T19:49:16.922Z,21.59
2022-10-12T19:51:45.418Z,21.57
2022-10-12T19:54:15.013Z,21.59
2022-10-12T19:56:43.570Z,21.57
2022-10-12T19:59:12.897Z,21.56
2022-10-12T20:01:41.208Z,21.54
2022-10-12T20:04:12.049Z,21.55
2022-10-12T20:06:40.248Z,21.52
2022-10-12T20:09:09.912Z,21.51
2022-10-12T20:11:38.441Z,21.50
2022-10-12T20:14:07.192Z,21.51
2022-10-12T20:16:37.940Z,21.51
2022-10-12T20:19:06.944Z,21.49
2022-10-12T20:21:36.436Z,21.49
2022-10-12T20:24:05.114Z,21.47
2022-10-12T20:26:32.984Z,21.45
2022-10-12T20:29:01.713Z,21.49
2022-10-12T20:31:29.659Z,21.48
2022-10-12T20:33:58.943Z,21.50
2022-10-12T20:36:29.548Z,21.45
2022-10-12T20:38:58.489Z,21.48
2022-10-12T20:41:27.721Z,21.47
2022-10-12T20:43:57.266Z,21.46
2022-10-12T20:46:25.753Z,21.44
2022-10-12T20:48:59.362Z,21.43
2022-10-12T20:51:29.906Z,21.45
2022-10-12T20:53:59.383Z,21.40
2022-10-12T20:56:27.541Z,21.41
2022-10-12T20:58:55.596Z,21.39
2022-10-12T21:01:25.536Z,21.40
2022-10-12T21:03:53.623Z,21.37
2022-10-12T21:06:23.557Z,21.40
2022-10-12T21:08:52.734Z,21.41
2022-10-12T21:11:21.062Z,21.40
2022-10-12T21:13:49.361Z,21.39
2022-10-12T21:16:17.417Z,21.35
2022-10-12T21:18:45.400Z,21.34
2022-10-12T21:21:16.137Z,21.33
2022-10-12T21:23:46.757Z,21.36
2022-10-12T21:26:16.352Z,21.35
2022-10-12T21:28:44.444Z,21.36
2022-10-12T21:31:13.733Z,21.32
2022-10-12T21:33:42.053Z,21.35
2022-10-12T21:36:11.863Z,21.34
2022-10-12T21:38:39.865Z,21.33
2022-10-12T21:41:10.704Z,21.33
2022-10-12T21:43:39.553Z,21.37
2022-10-12T21:46:09.577Z,21.38
2022-10-12T21:48:38.250Z,21.37
2022-10-12T21:51:07.490Z,20.96
2022-10-12T21:53:36.436Z,21.40
2022-10-12T21:56:07.243Z,21.40
2022-10-12T21:58:36.553Z,21.41
2022-10-12T22:01:06.140Z,21.39
2022-10-12T22:03:34.173Z,21.42
2022-10-12T22:06:02.290Z,21.40
2022-10-12T22:08:30.293Z,21.43
2022-10-12T22:10:58.221Z,21.44
2022-10-12T22:13:26.100Z,21.44
2022-10-12T22:16:06.650Z,21.45
2022-10-12T22:18:34.704Z,21.44
2022-10-12T22:21:04.243Z,21.45
2022-10-12T22:23:32.443Z,21.44
2022-10-12T22:26:06.847Z,21.44
2022-10-12T22:28:35.663Z,21.38
2022-10-12T22:31:08.681Z,21.44
2022-10-12T22:33:37.414Z,21.40
2022-10-12T22:36:07.031Z,21.44
2022-10-12T22:38:36.417Z,21.45
2022-10-12T22:41:07.520Z,21.46
2022-10-12T22:43:39.513Z,21.45
2022-10-12T22:46:09.104Z,21.36
2022-10-12T22:48:37.957Z,21.46
2022-10-12T22:51:07.410Z,21.46
2022-10-12T22:53:36.151Z,21.48
2022-10-12T22:56:06.494Z,21.49
2022-10-12T22:58:34.782Z,21.40
2022-10-12T23:01:04.441Z,21.52
2022-10-12T23:03:34.909Z,21.51
2022-10-12T23:06:08.212Z,21.50
2022-10-12T23:08:36.430Z,21.50
2022-10-12T23:11:05.802Z,21.45
2022-10-12T23:13:35.477Z,21.50
2022-10-12T23:16:04.123Z,21.49
2022-10-12T23:18:34.343Z,21.51
2022-10-12T23:21:05.527Z,21.52
2022-10-12T23:23:34.819Z,21.44
2022-10-12T23:26:05.125Z,21.51
2022-10-12T23:28:33.122Z,21.51
2022-10-12T23:31:03.120Z,21.50
2022-10-12T23:33:31.042Z,21.50
2022-10-12T23:36:02.254Z,21.50
2022-10-12T23:38:31.281Z,21.48
2022-10-12T23:40:59.807Z,21.49
2022-10-12T23:43:28.172Z,21.50
2022-10-12T23:45:56.089Z,21.49
2022-10-12T23:48:24.195Z,21.47
2022-10-12T23:50:52.813Z,21.47
2022-10-12T23:53:23.902Z,21.47
2022-10-12T23:55:53.015Z,21.46
2022-10-12T23:58:21.346Z,21.46
